sensor_id;sensor_type;location;lat;lon;timestamp;temperature;humidity
60234;DHT22;49514;43.538;-5.708;2023-07-24T12:32:54;23.80;99.90
60234;DHT22;49514;43.538;-5.708;2023-07-24T12:35:21;23.60;99.90
60234;DHT22;49514;43.538;-5.708;2023-07-24T12:37:48;23.80;99.90
60234;DHT22;49514;43.538;-5.708;2023-07-24T12:40:14;23.90;99.90
60234;DHT22;49514;43.538;-5.708;2023-07-24T12:42:41;24.00;99.90
60234;DHT22;49514;43.538;-5.708;2023-07-24T12:45:08;24.00;99.90
60234;DHT22;49514;43.538;-5.708;2023-07-24T12:47:35;24.00;99.90
60234;DHT22;49514;43.538;-5.708;2023-07-24T12:50:01;24.00;99.90
60234;DHT22;49514;43.538;-5.708;2023-07-24T12:52:30;24.00;99.90
60234;DHT22;49514;43.538;-5.708;2023-07-24T12:54:57;24.00;99.90
60234;DHT22;49514;43.538;-5.708;2023-07-24T12:57:24;24.40;99.90
60234;DHT22;49514;43.538;-5.708;2023-07-24T12:59:52;24.60;99.90
60234;DHT22;49514;43.538;-5.708;2023-07-24T13:02:19;24.50;99.90
60234;DHT22;49514;43.538;-5.708;2023-07-24T13:04:46;24.50;99.90
60234;DHT22;49514;43.538;-5.708;2023-07-24T13:07:13;24.50;99.90
60234;DHT22;49514;43.538;-5.708;2023-07-24T13:09:39;24.40;99.90
60234;DHT22;49514;43.538;-5.708;2023-07-24T13:12:06;24.20;99.90
60234;DHT22;49514;43.538;-5.708;2023-07-24T13:14:33;24.00;99.90
60234;DHT22;49514;43.538;-5.708;2023-07-24T13:17:00;23.90;99.90
60234;DHT22;49514;43.538;-5.708;2023-07-24T13:19:27;23.80;99.90
60234;DHT22;49514;43.538;-5.708;2023-07-24T13:21:53;23.80;99.90
60234;DHT22;49514;43.538;-5.708;2023-07-24T13:24:20;23.80;99.90
60234;DHT22;49514;43.538;-5.708;2023-07-24T13:26:47;23.80;99.90
60234;DHT22;49514;43.538;-5.708;2023-07-24T13:29:13;23.90;99.90
60234;DHT22;49514;43.538;-5.708;2023-07-24T13:31:41;23.90;99.90
60234;DHT22;49514;43.538;-5.708;2023-07-24T13:34:08;23.90;99.90
60234;DHT22;49514;43.538;-5.708;2023-07-24T13:36:34;24.00;99.90
60234;DHT22;49514;43.538;-5.708;2023-07-24T13:39:02;24.00;99.90
60234;DHT22;49514;43.538;-5.708;2023-07-24T13:41:28;23.90;99.90
60234;DHT22;49514;43.538;-5.708;2023-07-24T13:43:55;23.70;99.90
60234;DHT22;49514;43.538;-5.708;2023-07-24T13:46:23;23.60;99.90
60234;DHT22;49514;43.538;-5.708;2023-07-24T13:48:49;23.50;99.90
60234;DHT22;49514;43.538;-5.708;2023-07-24T13:51:16;23.40;99.90
60234;DHT22;49514;43.538;-5.708;2023-07-24T13:53:43;23.40;99.90
60234;DHT22;49514;43.538;-5.708;2023-07-24T13:56:10;23.30;99.90
60234;DHT22;49514;43.538;-5.708;2023-07-24T13:58:37;23.50;99.90
60234;DHT22;49514;43.538;-5.708;2023-07-24T14:01:03;23.60;99.90
60234;DHT22;49514;43.538;-5.708;2023-07-24T14:03:33;23.70;99.90
60234;DHT22;49514;43.538;-5.708;2023-07-24T14:06:00;23.80;99.90
60234;DHT22;49514;43.538;-5.708;2023-07-24T14:08:26;23.80;99.90
60234;DHT22;49514;43.538;-5.708;2023-07-24T14:10:53;23.80;99.90
60234;DHT22;49514;43.538;-5.708;2023-07-24T14:13:20;23.80;99.90
60234;DHT22;49514;43.538;-5.708;2023-07-24T14:15:47;23.80;99.90
60234;DHT22;49514;43.538;-5.708;2023-07-24T14:18:14;23.80;99.90
60234;DHT22;49514;43.538;-5.708;2023-07-24T14:20:41;24.00;99.90
60234;DHT22;49514;43.538;-5.708;2023-07-24T14:23:08;24.30;99.90
60234;DHT22;49514;43.538;-5.708;2023-07-24T14:25:34;24.50;99.90
60234;DHT22;49514;43.538;-5.708;2023-07-24T14:28:04;24.90;99.90
60234;DHT22;49514;43.538;-5.708;2023-07-24T14:30:31;25.10;99.90
60234;DHT22;49514;43.538;-5.708;2023-07-24T14:32:58;25.30;99.90
60234;DHT22;49514;43.538;-5.708;2023-07-24T14:35:24;25.50;99.10
60234;DHT22;49514;43.538;-5.708;2023-07-24T14:37:51;25.90;98.30
60234;DHT22;49514;43.538;-5.708;2023-07-24T14:40:18;26.20;97.10
60234;DHT22;49514;43.538;-5.708;2023-07-24T14:42:46;26.20;97.50
60234;DHT22;49514;43.538;-5.708;2023-07-24T14:45:12;26.00;97.20
60234;DHT22;49514;43.538;-5.708;2023-07-24T14:47:39;25.60;98.50
60234;DHT22;49514;43.538;-5.708;2023-07-24T14:50:06;25.30;98.80
60234;DHT22;49514;43.538;-5.708;2023-07-24T14:52:33;24.90;99.60
60234;DHT22;49514;43.538;-5.708;2023-07-24T14:55:00;24.70;99.90
60234;DHT22;49514;43.538;-5.708;2023-07-24T14:57:27;24.50;99.90
60234;DHT22;49514;43.538;-5.708;2023-07-24T14:59:54;24.50;99.90
60234;DHT22;49514;43.538;-5.708;2023-07-24T15:02:21;24.80;99.90
60234;DHT22;49514;43.538;-5.708;2023-07-24T15:04:49;25.10;99.90
60234;DHT22;49514;43.538;-5.708;2023-07-24T15:07:16;25.10;99.90
60234;DHT22;49514;43.538;-5.708;2023-07-24T15:09:44;25.20;99.90
60234;DHT22;49514;43.538;-5.708;2023-07-24T15:12:11;25.40;99.90
60234;DHT22;49514;43.538;-5.708;2023-07-24T15:14:38;25.60;99.90
60234;DHT22;49514;43.538;-5.708;2023-07-24T15:17:06;25.90;99.90
60234;DHT22;49514;43.538;-5.708;2023-07-24T15:19:33;26.20;99.90
60234;DHT22;49514;43.538;-5.708;2023-07-24T15:22:00;26.30;99.90
60234;DHT22;49514;43.538;-5.708;2023-07-24T15:24:27;26.30;99.90
60234;DHT22;49514;43.538;-5.708;2023-07-24T15:26:54;26.40;99.90
60234;DHT22;49514;43.538;-5.708;2023-07-24T15:29:21;26.40;99.50
60234;DHT22;49514;43.538;-5.708;2023-07-24T15:31:48;26.20;99.70
60234;DHT22;49514;43.538;-5.708;2023-07-24T15:34:15;26.00;99.90
60234;DHT22;49514;43.538;-5.708;2023-07-24T15:36:42;25.70;99.90
60234;DHT22;49514;43.538;-5.708;2023-07-24T15:39:09;25.70;99.90
60234;DHT22;49514;43.538;-5.708;2023-07-24T15:41:35;26.00;99.90
60234;DHT22;49514;43.538;-5.708;2023-07-24T15:44:02;26.20;99.90
60234;DHT22;49514;43.538;-5.708;2023-07-24T15:46:29;26.50;99.90
60234;DHT22;49514;43.538;-5.708;2023-07-24T15:48:58;26.80;99.60
60234;DHT22;49514;43.538;-5.708;2023-07-24T15:51:26;26.80;99.60
60234;DHT22;49514;43.538;-5.708;2023-07-24T15:53:53;27.30;99.10
60234;DHT22;49514;43.538;-5.708;2023-07-24T15:56:21;27.20;98.70
60234;DHT22;49514;43.538;-5.708;2023-07-24T15:58:49;26.50;99.20
60234;DHT22;49514;43.538;-5.708;2023-07-24T16:01:18;25.80;99.90
60234;DHT22;49514;43.538;-5.708;2023-07-24T16:03:47;25.30;99.90
60234;DHT22;49514;43.538;-5.708;2023-07-24T16:06:14;24.90;99.90
60234;DHT22;49514;43.538;-5.708;2023-07-24T16:08:42;24.60;99.90
60234;DHT22;49514;43.538;-5.708;2023-07-24T16:11:09;24.40;99.90
60234;DHT22;49514;43.538;-5.708;2023-07-24T16:13:40;24.60;99.90
60234;DHT22;49514;43.538;-5.708;2023-07-24T16:16:08;26.50;99.90
60234;DHT22;49514;43.538;-5.708;2023-07-24T16:18:38;27.90;99.90
60234;DHT22;49514;43.538;-5.708;2023-07-24T16:21:04;27.90;98.40
60234;DHT22;49514;43.538;-5.708;2023-07-24T16:23:32;27.50;99.10
60234;DHT22;49514;43.538;-5.708;2023-07-24T16:25:59;26.90;99.30
60234;DHT22;49514;43.538;-5.708;2023-07-24T16:28:26;26.70;99.90
60234;DHT22;49514;43.538;-5.708;2023-07-24T16:30:53;26.80;99.90
60234;DHT22;49514;43.538;-5.708;2023-07-24T16:33:23;26.40;99.80
60234;DHT22;49514;43.538;-5.708;2023-07-24T16:35:51;25.80;99.90
60234;DHT22;49514;43.538;-5.708;2023-07-24T16:38:18;25.50;99.90
60234;DHT22;49514;43.538;-5.708;2023-07-24T16:40:45;25.10;99.90
60234;DHT22;49514;43.538;-5.708;2023-07-24T16:43:12;24.70;99.90
60234;DHT22;49514;43.538;-5.708;2023-07-24T16:45:39;24.60;99.90
60234;DHT22;49514;43.538;-5.708;2023-07-24T16:48:06;24.40;99.90
60234;DHT22;49514;43.538;-5.708;2023-07-24T16:50:33;24.30;99.90
60234;DHT22;49514;43.538;-5.708;2023-07-24T16:53:01;24.20;99.90
60234;DHT22;49514;43.538;-5.708;2023-07-24T16:55:28;24.10;99.90
60234;DHT22;49514;43.538;-5.708;2023-07-24T16:57:55;24.00;99.90
60234;DHT22;49514;43.538;-5.708;2023-07-24T17:00:21;24.00;99.90
60234;DHT22;49514;43.538;-5.708;2023-07-24T17:02:48;24.30;99.90
60234;DHT22;49514;43.538;-5.708;2023-07-24T17:05:15;24.50;99.90
60234;DHT22;49514;43.538;-5.708;2023-07-24T17:07:42;24.50;99.90
60234;DHT22;49514;43.538;-5.708;2023-07-24T17:10:08;24.20;99.90
60234;DHT22;49514;43.538;-5.708;2023-07-24T17:12:36;24.10;99.90
60234;DHT22;49514;43.538;-5.708;2023-07-24T17:15:03;24.00;99.90
60234;DHT22;49514;43.538;-5.708;2023-07-24T17:17:30;23.90;99.90
60234;DHT22;49514;43.538;-5.708;2023-07-24T17:19:56;23.60;99.90
60234;DHT22;49514;43.538;-5.708;2023-07-24T17:22:23;23.50;99.90
60234;DHT22;49514;43.538;-5.708;2023-07-24T17:24:50;23.40;99.90
60234;DHT22;49514;43.538;-5.708;2023-07-24T17:27:17;23.30;99.90
60234;DHT22;49514;43.538;-5.708;2023-07-24T17:29:44;23.20;99.90
60234;DHT22;49514;43.538;-5.708;2023-07-24T17:32:12;23.20;99.90
60234;DHT22;49514;43.538;-5.708;2023-07-24T17:34:40;23.10;99.90
60234;DHT22;49514;43.538;-5.708;2023-07-24T17:37:07;23.10;99.90
60234;DHT22;49514;43.538;-5.708;2023-07-24T17:39:34;23.10;99.90
60234;DHT22;49514;43.538;-5.708;2023-07-24T17:42:00;23.30;99.90
60234;DHT22;49514;43.538;-5.708;2023-07-24T17:44:28;23.40;99.90
60234;DHT22;49514;43.538;-5.708;2023-07-24T17:46:55;23.60;99.90
60234;DHT22;49514;43.538;-5.708;2023-07-24T17:49:22;23.60;99.90
60234;DHT22;49514;43.538;-5.708;2023-07-24T17:51:48;23.60;99.90
60234;DHT22;49514;43.538;-5.708;2023-07-24T17:54:15;23.40;99.90
60234;DHT22;49514;43.538;-5.708;2023-07-24T17:56:42;23.40;99.90
60234;DHT22;49514;43.538;-5.708;2023-07-24T17:59:09;23.40;99.90
60234;DHT22;49514;43.538;-5.708;2023-07-24T18:01:35;23.20;99.90
60234;DHT22;49514;43.538;-5.708;2023-07-24T18:04:03;23.10;99.90
60234;DHT22;49514;43.538;-5.708;2023-07-24T18:06:30;23.10;99.90
60234;DHT22;49514;43.538;-5.708;2023-07-24T18:08:57;23.00;99.90
60234;DHT22;49514;43.538;-5.708;2023-07-24T18:11:24;22.90;99.90
60234;DHT22;49514;43.538;-5.708;2023-07-24T18:13:51;22.70;99.90
60234;DHT22;49514;43.538;-5.708;2023-07-24T18:16:18;22.70;99.90
60234;DHT22;49514;43.538;-5.708;2023-07-24T18:18:45;22.80;99.90
60234;DHT22;49514;43.538;-5.708;2023-07-24T18:21:11;23.40;99.90
60234;DHT22;49514;43.538;-5.708;2023-07-24T18:23:38;23.90;99.90
60234;DHT22;49514;43.538;-5.708;2023-07-24T18:26:05;24.00;99.90
60234;DHT22;49514;43.538;-5.708;2023-07-24T18:28:31;23.80;99.90
60234;DHT22;49514;43.538;-5.708;2023-07-24T18:30:58;23.50;99.90
60234;DHT22;49514;43.538;-5.708;2023-07-24T18:33:24;23.30;99.90
60234;DHT22;49514;43.538;-5.708;2023-07-24T18:35:51;23.10;99.90
60234;DHT22;49514;43.538;-5.708;2023-07-24T18:38:18;22.90;99.90
60234;DHT22;49514;43.538;-5.708;2023-07-24T18:40:46;22.90;99.90
60234;DHT22;49514;43.538;-5.708;2023-07-24T18:43:13;22.80;99.90
60234;DHT22;49514;43.538;-5.708;2023-07-24T18:45:40;22.80;99.90
60234;DHT22;49514;43.538;-5.708;2023-07-24T18:48:07;22.70;99.90
60234;DHT22;49514;43.538;-5.708;2023-07-24T18:50:35;22.60;99.90
60234;DHT22;49514;43.538;-5.708;2023-07-24T18:53:02;22.60;99.90
60234;DHT22;49514;43.538;-5.708;2023-07-24T18:55:29;22.70;99.90
60234;DHT22;49514;43.538;-5.708;2023-07-24T18:57:56;22.70;99.90
60234;DHT22;49514;43.538;-5.708;2023-07-24T19:00:23;22.70;99.90
60234;DHT22;49514;43.538;-5.708;2023-07-24T19:02:50;22.60;99.90
60234;DHT22;49514;43.538;-5.708;2023-07-24T19:05:17;22.60;99.90
60234;DHT22;49514;43.538;-5.708;2023-07-24T19:07:45;22.80;99.90
60234;DHT22;49514;43.538;-5.708;2023-07-24T19:10:12;23.10;99.90
60234;DHT22;49514;43.538;-5.708;2023-07-24T19:12:39;23.10;99.90
60234;DHT22;49514;43.538;-5.708;2023-07-24T19:15:07;23.10;99.90
60234;DHT22;49514;43.538;-5.708;2023-07-24T19:17:34;22.90;99.90
60234;DHT22;49514;43.538;-5.708;2023-07-24T19:20:01;22.80;99.90
60234;DHT22;49514;43.538;-5.708;2023-07-24T19:22:29;22.70;99.90
60234;DHT22;49514;43.538;-5.708;2023-07-24T19:24:56;22.70;99.90
60234;DHT22;49514;43.538;-5.708;2023-07-24T19:27:23;22.60;99.90
60234;DHT22;49514;43.538;-5.708;2023-07-24T19:29:50;22.50;99.90
60234;DHT22;49514;43.538;-5.708;2023-07-24T19:32:17;22.50;99.90
60234;DHT22;49514;43.538;-5.708;2023-07-24T19:34:45;22.40;99.90
60234;DHT22;49514;43.538;-5.708;2023-07-24T19:37:12;22.30;99.90
60234;DHT22;49514;43.538;-5.708;2023-07-24T19:39:41;22.30;99.90
60234;DHT22;49514;43.538;-5.708;2023-07-24T19:42:08;22.20;99.90
60234;DHT22;49514;43.538;-5.708;2023-07-24T19:44:36;22.10;99.90
60234;DHT22;49514;43.538;-5.708;2023-07-24T19:47:03;22.00;99.90
60234;DHT22;49514;43.538;-5.708;2023-07-24T19:49:31;22.00;99.90
60234;DHT22;49514;43.538;-5.708;2023-07-24T19:52:01;21.90;99.90
60234;DHT22;49514;43.538;-5.708;2023-07-24T19:54:31;21.80;99.90
60234;DHT22;49514;43.538;-5.708;2023-07-24T19:56:59;21.70;99.90
60234;DHT22;49514;43.538;-5.708;2023-07-24T19:59:26;21.60;99.90
60234;DHT22;49514;43.538;-5.708;2023-07-24T20:01:54;21.60;99.90
60234;DHT22;49514;43.538;-5.708;2023-07-24T20:04:21;21.50;99.90
60234;DHT22;49514;43.538;-5.708;2023-07-24T20:06:51;21.40;99.90
60234;DHT22;49514;43.538;-5.708;2023-07-24T20:09:18;21.40;99.90
60234;DHT22;49514;43.538;-5.708;2023-07-24T20:11:45;21.40;99.90
60234;DHT22;49514;43.538;-5.708;2023-07-24T20:14:11;21.30;99.90
60234;DHT22;49514;43.538;-5.708;2023-07-24T20:16:38;21.30;99.90
60234;DHT22;49514;43.538;-5.708;2023-07-24T20:19:05;21.30;99.90
60234;DHT22;49514;43.538;-5.708;2023-07-24T20:21:32;21.30;99.90
60234;DHT22;49514;43.538;-5.708;2023-07-24T20:24:12;21.30;99.90
60234;DHT22;49514;43.538;-5.708;2023-07-24T20:26:39;21.20;99.90
60234;DHT22;49514;43.538;-5.708;2023-07-24T20:29:05;21.20;99.90
60234;DHT22;49514;43.538;-5.708;2023-07-24T20:31:32;21.20;99.90
60234;DHT22;49514;43.538;-5.708;2023-07-24T20:34:00;21.10;99.90
60234;DHT22;49514;43.538;-5.708;2023-07-24T20:36:26;21.10;99.90
60234;DHT22;49514;43.538;-5.708;2023-07-24T20:38:53;21.10;99.90
60234;DHT22;49514;43.538;-5.708;2023-07-24T20:41:20;21.10;99.90
60234;DHT22;49514;43.538;-5.708;2023-07-24T20:43:47;21.00;99.90
60234;DHT22;49514;43.538;-5.708;2023-07-24T20:46:16;21.00;99.90
60234;DHT22;49514;43.538;-5.708;2023-07-24T20:48:43;20.90;99.90
60234;DHT22;49514;43.538;-5.708;2023-07-24T20:51:18;20.90;99.90
60234;DHT22;49514;43.538;-5.708;2023-07-24T20:53:47;20.90;99.90
60234;DHT22;49514;43.538;-5.708;2023-07-24T20:56:15;20.80;99.90
60234;DHT22;49514;43.538;-5.708;2023-07-24T20:58:43;20.80;99.90
60234;DHT22;49514;43.538;-5.708;2023-07-24T21:01:11;20.80;99.90
60234;DHT22;49514;43.538;-5.708;2023-07-24T21:03:38;20.80;99.90
60234;DHT22;49514;43.538;-5.708;2023-07-24T21:06:05;20.70;99.90
60234;DHT22;49514;43.538;-5.708;2023-07-24T21:08:32;20.70;99.90
60234;DHT22;49514;43.538;-5.708;2023-07-24T21:10:59;20.70;99.90
60234;DHT22;49514;43.538;-5.708;2023-07-24T21:13:26;20.70;99.90
60234;DHT22;49514;43.538;-5.708;2023-07-24T21:15:53;20.70;99.90
60234;DHT22;49514;43.538;-5.708;2023-07-24T21:18:23;20.70;99.90
60234;DHT22;49514;43.538;-5.708;2023-07-24T21:20:50;20.70;99.90
60234;DHT22;49514;43.538;-5.708;2023-07-24T21:23:17;20.60;99.90
60234;DHT22;49514;43.538;-5.708;2023-07-24T21:25:54;20.60;99.90
60234;DHT22;49514;43.538;-5.708;2023-07-24T21:28:24;20.60;99.90
60234;DHT22;49514;43.538;-5.708;2023-07-24T21:30:52;20.60;99.90
60234;DHT22;49514;43.538;-5.708;2023-07-24T21:33:20;20.60;99.90
60234;DHT22;49514;43.538;-5.708;2023-07-24T21:35:58;20.60;99.90
60234;DHT22;49514;43.538;-5.708;2023-07-24T21:38:26;20.50;99.90
60234;DHT22;49514;43.538;-5.708;2023-07-24T21:40:53;20.60;99.90
60234;DHT22;49514;43.538;-5.708;2023-07-24T21:43:20;20.60;99.90
60234;DHT22;49514;43.538;-5.708;2023-07-24T21:45:48;20.50;99.90
60234;DHT22;49514;43.538;-5.708;2023-07-24T21:48:16;20.50;99.90
60234;DHT22;49514;43.538;-5.708;2023-07-24T21:50:49;20.60;99.90
60234;DHT22;49514;43.538;-5.708;2023-07-24T21:53:21;20.50;99.90
60234;DHT22;49514;43.538;-5.708;2023-07-24T21:55:48;20.50;99.90
60234;DHT22;49514;43.538;-5.708;2023-07-24T21:58:15;20.50;99.90
60234;DHT22;49514;43.538;-5.708;2023-07-24T22:00:43;20.50;99.90
60234;DHT22;49514;43.538;-5.708;2023-07-24T22:03:10;20.50;99.90
60234;DHT22;49514;43.538;-5.708;2023-07-24T22:05:36;20.40;99.90
60234;DHT22;49514;43.538;-5.708;2023-07-24T22:08:03;20.40;99.90
60234;DHT22;49514;43.538;-5.708;2023-07-24T22:10:30;20.40;99.90
60234;DHT22;49514;43.538;-5.708;2023-07-24T22:12:57;20.40;99.90
60234;DHT22;49514;43.538;-5.708;2023-07-24T22:15:25;20.30;99.90
60234;DHT22;49514;43.538;-5.708;2023-07-24T22:17:51;20.30;99.90
60234;DHT22;49514;43.538;-5.708;2023-07-24T22:20:18;20.20;99.90
60234;DHT22;49514;43.538;-5.708;2023-07-24T22:22:45;20.20;99.90
60234;DHT22;49514;43.538;-5.708;2023-07-24T22:25:12;20.20;99.90
60234;DHT22;49514;43.538;-5.708;2023-07-24T22:27:40;20.20;99.90
60234;DHT22;49514;43.538;-5.708;2023-07-24T22:30:07;20.20;99.90
60234;DHT22;49514;43.538;-5.708;2023-07-24T22:32:34;20.20;99.90
60234;DHT22;49514;43.538;-5.708;2023-07-24T22:35:01;20.10;99.90
60234;DHT22;49514;43.538;-5.708;2023-07-24T22:37:27;20.10;99.90
60234;DHT22;49514;43.538;-5.708;2023-07-24T22:39:54;20.00;99.90
60234;DHT22;49514;43.538;-5.708;2023-07-24T22:42:21;20.00;99.90
60234;DHT22;49514;43.538;-5.708;2023-07-24T22:44:47;20.00;99.90
60234;DHT22;49514;43.538;-5.708;2023-07-24T22:47:14;20.00;99.90
60234;DHT22;49514;43.538;-5.708;2023-07-24T22:49:41;20.00;99.90
60234;DHT22;49514;43.538;-5.708;2023-07-24T22:52:07;19.90;99.90
60234;DHT22;49514;43.538;-5.708;2023-07-24T22:54:34;19.90;99.90
60234;DHT22;49514;43.538;-5.708;2023-07-24T22:57:01;19.90;99.90
60234;DHT22;49514;43.538;-5.708;2023-07-24T22:59:28;19.90;99.90
60234;DHT22;49514;43.538;-5.708;2023-07-24T23:01:56;19.80;99.90
60234;DHT22;49514;43.538;-5.708;2023-07-24T23:04:24;19.80;99.90
60234;DHT22;49514;43.538;-5.708;2023-07-24T23:06:52;19.80;99.90
60234;DHT22;49514;43.538;-5.708;2023-07-24T23:09:21;19.80;99.90
60234;DHT22;49514;43.538;-5.708;2023-07-24T23:11:47;19.90;99.90
60234;DHT22;49514;43.538;-5.708;2023-07-24T23:14:14;19.90;99.90
60234;DHT22;49514;43.538;-5.708;2023-07-24T23:16:41;19.90;99.90
60234;DHT22;49514;43.538;-5.708;2023-07-24T23:19:07;19.90;99.90
60234;DHT22;49514;43.538;-5.708;2023-07-24T23:21:34;19.90;99.90
60234;DHT22;49514;43.538;-5.708;2023-07-24T23:24:01;19.90;99.90
60234;DHT22;49514;43.538;-5.708;2023-07-24T23:26:28;19.90;99.90
60234;DHT22;49514;43.538;-5.708;2023-07-24T23:28:54;19.90;99.90
60234;DHT22;49514;43.538;-5.708;2023-07-24T23:31:23;19.90;99.90
60234;DHT22;49514;43.538;-5.708;2023-07-24T23:33:50;19.90;99.90
60234;DHT22;49514;43.538;-5.708;2023-07-24T23:36:17;20.00;99.90
60234;DHT22;49514;43.538;-5.708;2023-07-24T23:38:44;20.00;99.90
60234;DHT22;49514;43.538;-5.708;2023-07-24T23:41:10;20.00;99.90
60234;DHT22;49514;43.538;-5.708;2023-07-24T23:43:38;20.00;99.90
60234;DHT22;49514;43.538;-5.708;2023-07-24T23:46:11;20.00;99.90
60234;DHT22;49514;43.538;-5.708;2023-07-24T23:48:39;20.00;99.90
60234;DHT22;49514;43.538;-5.708;2023-07-24T23:51:17;19.90;99.90
60234;DHT22;49514;43.538;-5.708;2023-07-24T23:53:45;20.00;99.90
60234;DHT22;49514;43.538;-5.708;2023-07-24T23:56:11;19.90;99.90
60234;DHT22;49514;43.538;-5.708;2023-07-24T23:58:38;20.00;99.90
